Walton, Indiana
Current Conditions -  °F | °C
As of 10:52 PM on Monday 22 Dec 2014 (Local Time) from KGUS Reporting Station
Light Rain Light Rain  
Wind Chill: 34°   Ceiling: 2800
Heat Index: 41°   Visibility: 10mi
Dew Point: 41°   Wind: 13mph
Humidity: 100%   Direction: 110°ESE
Pressure: 29.67"   Gusts: NA
Location:  40.66°N, 86.24°W
Report Text: KGUS 230352Z AUTO 11011KT 10SM -RA OVC028 05/05 A2967 RMK AO2 RAE0322DZB0349 TSNO $
Loading
Personal Weather Stations






























Interactive Weather Map New forecast layout! Learn more

10-Day Weather Forecast

Advertisements
Track Severe Weather on mobile